sensor_id;sensor_type;location;lat;lon;timestamp;P1;durP1;ratioP1;P2;durP2;ratioP2
23866;SDS011;12114;53.404;-1.502;2022-07-10T21:25:35;2.60;;;0.57;;
23866;SDS011;12114;53.404;-1.502;2022-07-10T21:28:00;1.92;;;0.77;;
23866;SDS011;12114;53.404;-1.502;2022-07-10T21:30:27;1.42;;;0.43;;
23866;SDS011;12114;53.404;-1.502;2022-07-10T21:32:53;1.83;;;0.60;;
23866;SDS011;12114;53.404;-1.502;2022-07-10T21:35:19;1.85;;;0.80;;
23866;SDS011;12114;53.404;-1.502;2022-07-10T21:37:44;1.55;;;0.52;;
23866;SDS011;12114;53.404;-1.502;2022-07-10T21:40:10;2.63;;;0.60;;
23866;SDS011;12114;53.404;-1.502;2022-07-10T21:42:36;3.22;;;0.57;;
23866;SDS011;12114;53.404;-1.502;2022-07-10T21:45:02;0.88;;;0.47;;
23866;SDS011;12114;53.404;-1.502;2022-07-10T21:47:28;1.40;;;0.50;;
23866;SDS011;12114;53.404;-1.502;2022-07-10T21:49:53;1.15;;;0.40;;
23866;SDS011;12114;53.404;-1.502;2022-07-10T21:52:19;1.00;;;0.60;;
23866;SDS011;12114;53.404;-1.502;2022-07-10T21:54:44;1.20;;;0.80;;
23866;SDS011;12114;53.404;-1.502;2022-07-10T21:57:12;1.33;;;0.60;;
23866;SDS011;12114;53.404;-1.502;2022-07-10T21:59:37;2.83;;;0.77;;
23866;SDS011;12114;53.404;-1.502;2022-07-10T22:02:03;3.03;;;0.60;;
23866;SDS011;12114;53.404;-1.502;2022-07-10T22:04:28;1.83;;;0.60;;
23866;SDS011;12114;53.404;-1.502;2022-07-10T22:06:54;1.92;;;0.57;;
23866;SDS011;12114;53.404;-1.502;2022-07-10T22:09:19;4.18;;;0.90;;
23866;SDS011;12114;53.404;-1.502;2022-07-10T22:11:45;1.13;;;0.63;;
23866;SDS011;12114;53.404;-1.502;2022-07-10T22:14:10;2.50;;;0.70;;
23866;SDS011;12114;53.404;-1.502;2022-07-10T22:16:36;3.08;;;0.73;;
23866;SDS011;12114;53.404;-1.502;2022-07-10T22:19:01;2.72;;;0.70;;
23866;SDS011;12114;53.404;-1.502;2022-07-10T22:21:26;1.25;;;0.70;;
23866;SDS011;12114;53.404;-1.502;2022-07-10T22:23:52;2.40;;;0.95;;
23866;SDS011;12114;53.404;-1.502;2022-07-10T22:26:18;3.40;;;0.75;;
23866;SDS011;12114;53.404;-1.502;2022-07-10T22:28:44;1.67;;;0.88;;
23866;SDS011;12114;53.404;-1.502;2022-07-10T22:31:10;2.33;;;0.63;;
23866;SDS011;12114;53.404;-1.502;2022-07-10T22:33:48;2.83;;;0.75;;
23866;SDS011;12114;53.404;-1.502;2022-07-10T22:36:14;1.58;;;0.93;;
23866;SDS011;12114;53.404;-1.502;2022-07-10T22:38:40;2.08;;;0.60;;
23866;SDS011;12114;53.404;-1.502;2022-07-10T22:41:06;1.60;;;0.80;;
23866;SDS011;12114;53.404;-1.502;2022-07-10T22:43:31;1.65;;;0.82;;
23866;SDS011;12114;53.404;-1.502;2022-07-10T22:45:57;1.45;;;0.80;;
23866;SDS011;12114;53.404;-1.502;2022-07-10T22:48:22;2.00;;;1.00;;
23866;SDS011;12114;53.404;-1.502;2022-07-10T22:50:49;2.78;;;1.27;;
23866;SDS011;12114;53.404;-1.502;2022-07-10T22:53:15;3.38;;;1.75;;
23866;SDS011;12114;53.404;-1.502;2022-07-10T22:55:41;2.92;;;1.27;;
23866;SDS011;12114;53.404;-1.502;2022-07-10T22:58:07;4.40;;;1.20;;
23866;SDS011;12114;53.404;-1.502;2022-07-10T23:00:33;4.57;;;1.65;;
23866;SDS011;12114;53.404;-1.502;2022-07-10T23:03:03;7.50;;;1.30;;
23866;SDS011;12114;53.404;-1.502;2022-07-10T23:05:29;3.03;;;1.30;;
23866;SDS011;12114;53.404;-1.502;2022-07-10T23:07:55;5.18;;;1.30;;
23866;SDS011;12114;53.404;-1.502;2022-07-10T23:10:20;5.80;;;1.48;;
23866;SDS011;12114;53.404;-1.502;2022-07-10T23:12:48;3.10;;;1.35;;
23866;SDS011;12114;53.404;-1.502;2022-07-10T23:15:13;2.22;;;1.00;;
23866;SDS011;12114;53.404;-1.502;2022-07-10T23:17:39;1.77;;;1.08;;
23866;SDS011;12114;53.404;-1.502;2022-07-10T23:20:04;1.92;;;1.20;;
23866;SDS011;12114;53.404;-1.502;2022-07-10T23:22:30;2.22;;;0.93;;
23866;SDS011;12114;53.404;-1.502;2022-07-10T23:24:56;2.25;;;1.17;;
23866;SDS011;12114;53.404;-1.502;2022-07-10T23:27:22;3.00;;;1.20;;
23866;SDS011;12114;53.404;-1.502;2022-07-10T23:29:48;2.70;;;1.10;;
23866;SDS011;12114;53.404;-1.502;2022-07-10T23:32:13;2.30;;;1.00;;
23866;SDS011;12114;53.404;-1.502;2022-07-10T23:34:39;2.90;;;0.93;;
23866;SDS011;12114;53.404;-1.502;2022-07-10T23:37:06;2.45;;;1.05;;
23866;SDS011;12114;53.404;-1.502;2022-07-10T23:39:31;1.85;;;1.00;;
23866;SDS011;12114;53.404;-1.502;2022-07-10T23:41:58;1.95;;;0.93;;
23866;SDS011;12114;53.404;-1.502;2022-07-10T23:44:24;2.60;;;0.75;;
23866;SDS011;12114;53.404;-1.502;2022-07-10T23:46:49;2.45;;;0.70;;
23866;SDS011;12114;53.404;-1.502;2022-07-10T23:49:15;3.17;;;0.80;;
23866;SDS011;12114;53.404;-1.502;2022-07-10T23:51:58;2.53;;;0.80;;
23866;SDS011;12114;53.404;-1.502;2022-07-10T23:54:24;1.40;;;1.02;;
23866;SDS011;12114;53.404;-1.502;2022-07-10T23:56:50;3.05;;;0.90;;
23866;SDS011;12114;53.404;-1.502;2022-07-10T23:59:16;1.98;;;0.80;;
